Sun Prairie, Wisconsin
Current Conditions -  °F | °C
As of 7:53 AM on Thursday 30 Oct 2014 (Local Time) from KMSN Reporting Station
Overcast Overcast  
Wind Chill: 36°   Ceiling: 13000
Heat Index: 36°   Visibility: 10mi
Dew Point: 33°   Wind: 0mph
Humidity: 89%   Direction: NA
Pressure: 30.1"   Gusts: NA
Location:  43.18°N, 89.21°W
Report Text: KMSN 301253Z 00000KT 10SM OVC130 02/01 A3010 RMK AO2 SLP202 T00220006
Loading
Personal Weather Stations






























Interactive Weather Map
Tropical Storm Tracking
New forecast layout! Learn more

10-Day Weather Forecast

Advertisements
Track Severe Weather on mobile